sensor_id;sensor_type;location;lat;lon;timestamp;pressure;altitude;pressure_sealevel;temperature
13304;BMP280;6720;51.958;4.540;2023-02-15T00:01:38;102756.25;;;5.50
13304;BMP280;6720;51.958;4.540;2023-02-15T00:04:05;102756.25;;;5.50
13304;BMP280;6720;51.958;4.540;2023-02-15T00:06:32;102757.03;;;5.47
13304;BMP280;6720;51.958;4.540;2023-02-15T00:08:58;102753.47;;;5.44
13304;BMP280;6720;51.958;4.540;2023-02-15T00:11:24;102750.72;;;5.39
13304;BMP280;6720;51.958;4.540;2023-02-15T00:16:42;102735.81;;;5.34
13304;BMP280;6720;51.958;4.540;2023-02-15T00:19:09;102738.28;;;5.31
13304;BMP280;6720;51.958;4.540;2023-02-15T00:21:35;102729.53;;;5.27
13304;BMP280;6720;51.958;4.540;2023-02-15T00:24:03;102730.25;;;5.23
13304;BMP280;6720;51.958;4.540;2023-02-15T00:26:29;102730.34;;;5.26
13304;BMP280;6720;51.958;4.540;2023-02-15T00:28:55;102725.97;;;5.25
13304;BMP280;6720;51.958;4.540;2023-02-15T00:31:21;102729.53;;;5.27
13304;BMP280;6720;51.958;4.540;2023-02-15T00:33:47;102727.03;;;5.30
13304;BMP280;6720;51.958;4.540;2023-02-15T00:36:13;102721.72;;;5.27
13304;BMP280;6720;51.958;4.540;2023-02-15T00:38:39;102723.28;;;5.22
13304;BMP280;6720;51.958;4.540;2023-02-15T00:41:06;102727.66;;;5.23
13304;BMP280;6720;51.958;4.540;2023-02-15T00:43:32;102686.31;;;5.04
13304;BMP280;6720;51.958;4.540;2023-02-15T00:45:59;102728.50;;;5.24
13304;BMP280;6720;51.958;4.540;2023-02-15T00:48:24;102722.34;;;5.20
13304;BMP280;6720;51.958;4.540;2023-02-15T00:50:53;102715.28;;;5.16
13304;BMP280;6720;51.958;4.540;2023-02-15T00:53:19;102722.91;;;5.12
13304;BMP280;6720;51.958;4.540;2023-02-15T00:55:44;102713.22;;;4.84
13304;BMP280;6720;51.958;4.540;2023-02-15T00:58:10;102723.91;;;4.92
13304;BMP280;6720;51.958;4.540;2023-02-15T01:00:36;102722.22;;;4.92
13304;BMP280;6720;51.958;4.540;2023-02-15T01:03:02;102716.31;;;4.96
13304;BMP280;6720;51.958;4.540;2023-02-15T01:05:29;102716.38;;;4.99
13304;BMP280;6720;51.958;4.540;2023-02-15T01:07:56;102694.47;;;4.91
13304;BMP280;6720;51.958;4.540;2023-02-15T01:10:21;102702.59;;;5.00
13304;BMP280;6720;51.958;4.540;2023-02-15T01:12:47;102688.66;;;4.98
13304;BMP280;6720;51.958;4.540;2023-02-15T01:15:12;102693.00;;;4.98
13304;BMP280;6720;51.958;4.540;2023-02-15T01:17:38;102688.34;;;4.89
13304;BMP280;6720;51.958;4.540;2023-02-15T01:20:04;102702.78;;;5.06
13304;BMP280;6720;51.958;4.540;2023-02-15T01:22:30;102699.28;;;5.04
13304;BMP280;6720;51.958;4.540;2023-02-15T01:24:55;102695.63;;;4.99
13304;BMP280;6720;51.958;4.540;2023-02-15T01:27:20;102689.44;;;4.96
13304;BMP280;6720;51.958;4.540;2023-02-15T01:29:46;102700.94;;;5.02
13304;BMP280;6720;51.958;4.540;2023-02-15T01:32:12;102706.34;;;5.08
13304;BMP280;6720;51.958;4.540;2023-02-15T01:34:38;102695.06;;;5.08
13304;BMP280;6720;51.958;4.540;2023-02-15T01:37:03;102697.41;;;5.00
13304;BMP280;6720;51.958;4.540;2023-02-15T01:39:28;102685.59;;;4.85
13304;BMP280;6720;51.958;4.540;2023-02-15T01:41:54;102685.28;;;4.76
13304;BMP280;6720;51.958;4.540;2023-02-15T01:47:16;102686.47;;;4.85
13304;BMP280;6720;51.958;4.540;2023-02-15T01:49:45;102686.38;;;4.82
13304;BMP280;6720;51.958;4.540;2023-02-15T01:52:14;102676.75;;;4.56
13304;BMP280;6720;51.958;4.540;2023-02-15T01:54:43;102678.69;;;4.62
13304;BMP280;6720;51.958;4.540;2023-02-15T01:57:17;102678.63;;;4.60
13304;BMP280;6720;51.958;4.540;2023-02-15T01:59:47;102672.72;;;4.64
13304;BMP280;6720;51.958;4.540;2023-02-15T02:02:16;102680.88;;;4.73
13304;BMP280;6720;51.958;4.540;2023-02-15T02:04:48;102672.34;;;4.77
13304;BMP280;6720;51.958;4.540;2023-02-15T02:07:17;102665.50;;;4.79
13304;BMP280;6720;51.958;4.540;2023-02-15T02:09:44;102658.44;;;4.75
13304;BMP280;6720;51.958;4.540;2023-02-15T02:12:10;102661.75;;;4.71
13304;BMP280;6720;51.958;4.540;2023-02-15T02:14:36;102655.94;;;4.78
13304;BMP280;6720;51.958;4.540;2023-02-15T02:17:10;102658.66;;;4.81
13304;BMP280;6720;51.958;4.540;2023-02-15T02:29:12;102647.50;;;4.84
13304;BMP280;6720;51.958;4.540;2023-02-15T02:35:37;102639.66;;;4.82
13304;BMP280;6720;51.958;4.540;2023-02-15T02:38:51;102634.47;;;4.82
13304;BMP280;6720;51.958;4.540;2023-02-15T02:42:09;102630.06;;;4.80
13304;BMP280;6720;51.958;4.540;2023-02-15T02:45:24;102625.75;;;4.80
13304;BMP280;6720;51.958;4.540;2023-02-15T02:48:12;102620.47;;;4.77
13304;BMP280;6720;51.958;4.540;2023-02-15T02:50:40;102608.97;;;4.71
13304;BMP280;6720;51.958;4.540;2023-02-15T02:53:06;102609.63;;;4.65
13304;BMP280;6720;51.958;4.540;2023-02-15T02:56:06;102612.22;;;4.65
13304;BMP280;6720;51.958;4.540;2023-02-15T02:58:29;102610.41;;;4.63
13304;BMP280;6720;51.958;4.540;2023-02-15T03:01:11;102604.50;;;4.67
13304;BMP280;6720;51.958;4.540;2023-02-15T03:03:43;102615.00;;;4.70
13304;BMP280;6720;51.958;4.540;2023-02-15T03:06:12;102610.53;;;4.66
13304;BMP280;6720;51.958;4.540;2023-02-15T03:08:47;102602.25;;;4.52
13304;BMP280;6720;51.958;4.540;2023-02-15T03:11:14;102614.75;;;4.62
13304;BMP280;6720;51.958;4.540;2023-02-15T03:13:39;102607.88;;;4.64
13304;BMP280;6720;51.958;4.540;2023-02-15T03:16:05;102600.03;;;4.63
13304;BMP280;6720;51.958;4.540;2023-02-15T03:19:05;102601.53;;;4.56
13304;BMP280;6720;51.958;4.540;2023-02-15T03:24:17;102589.06;;;4.46
13304;BMP280;6720;51.958;4.540;2023-02-15T03:26:47;102596.03;;;4.47
13304;BMP280;6720;51.958;4.540;2023-02-15T03:29:15;102584.81;;;4.48
13304;BMP280;6720;51.958;4.540;2023-02-15T03:31:46;102579.53;;;4.45
13304;BMP280;6720;51.958;4.540;2023-02-15T03:34:13;102579.53;;;4.45
13304;BMP280;6720;51.958;4.540;2023-02-15T03:37:04;102578.56;;;4.42
13304;BMP280;6720;51.958;4.540;2023-02-15T03:39:53;102585.91;;;4.31
13304;BMP280;6720;51.958;4.540;2023-02-15T03:42:26;102575.56;;;4.31
13304;BMP280;6720;51.958;4.540;2023-02-15T03:45:02;102572.25;;;4.35
13304;BMP280;6720;51.958;4.540;2023-02-15T03:47:38;102576.69;;;4.38
13304;BMP280;6720;51.958;4.540;2023-02-15T03:50:12;102577.66;;;4.41
13304;BMP280;6720;51.958;4.540;2023-02-15T03:52:59;102582.84;;;4.41
13304;BMP280;6720;51.958;4.540;2023-02-15T03:55:27;102577.66;;;4.41
13304;BMP280;6720;51.958;4.540;2023-02-15T03:57:52;102572.59;;;4.44
13304;BMP280;6720;51.958;4.540;2023-02-15T04:00:40;102570.84;;;4.43
13304;BMP280;6720;51.958;4.540;2023-02-15T04:03:39;102562.53;;;4.30
13304;BMP280;6720;51.958;4.540;2023-02-15T04:06:05;102561.56;;;4.26
13304;BMP280;6720;51.958;4.540;2023-02-15T04:08:31;102545.03;;;4.24
13304;BMP280;6720;51.958;4.540;2023-02-15T04:11:17;102555.47;;;4.26
13304;BMP280;6720;51.958;4.540;2023-02-15T04:13:42;102547.44;;;4.18
13304;BMP280;6720;51.958;4.540;2023-02-15T04:16:08;102549.19;;;4.19
13304;BMP280;6720;51.958;4.540;2023-02-15T04:18:35;102551.66;;;4.16
13304;BMP280;6720;51.958;4.540;2023-02-15T04:21:20;102544.53;;;4.09
13304;BMP280;6720;51.958;4.540;2023-02-15T04:24:05;102544.34;;;4.05
13304;BMP280;6720;51.958;4.540;2023-02-15T04:26:49;102544.22;;;4.02
13304;BMP280;6720;51.958;4.540;2023-02-15T04:29:18;102541.94;;;4.09
13304;BMP280;6720;51.958;4.540;2023-02-15T04:31:45;102536.75;;;4.09
13304;BMP280;6720;51.958;4.540;2023-02-15T04:34:10;102545.44;;;4.11
13304;BMP280;6720;51.958;4.540;2023-02-15T04:36:37;102542.25;;;4.18
13304;BMP280;6720;51.958;4.540;2023-02-15T04:39:03;102550.94;;;4.20
13304;BMP280;6720;51.958;4.540;2023-02-15T04:41:28;102547.19;;;4.12
13304;BMP280;6720;51.958;4.540;2023-02-15T04:43:54;102547.13;;;4.09
13304;BMP280;6720;51.958;4.540;2023-02-15T04:46:19;102543.81;;;4.13
13304;BMP280;6720;51.958;4.540;2023-02-15T04:48:44;102548.22;;;4.16
13304;BMP280;6720;51.958;4.540;2023-02-15T04:51:10;102531.50;;;4.08
13304;BMP280;6720;51.958;4.540;2023-02-15T04:53:35;102533.22;;;4.07
13304;BMP280;6720;51.958;4.540;2023-02-15T04:56:01;102527.69;;;3.98
13304;BMP280;6720;51.958;4.540;2023-02-15T04:58:27;102536.28;;;3.97
13304;BMP280;6720;51.958;4.540;2023-02-15T05:00:56;102530.38;;;4.01
13304;BMP280;6720;51.958;4.540;2023-02-15T05:03:21;102527.06;;;4.05
13304;BMP280;6720;51.958;4.540;2023-02-15T05:05:47;102537.84;;;4.16
13304;BMP280;6720;51.958;4.540;2023-02-15T05:08:12;102533.63;;;4.19
13304;BMP280;6720;51.958;4.540;2023-02-15T05:10:37;102528.41;;;4.18
13304;BMP280;6720;51.958;4.540;2023-02-15T05:13:03;102520.56;;;4.16
13304;BMP280;6720;51.958;4.540;2023-02-15T05:15:28;102529.34;;;4.20
13304;BMP280;6720;51.958;4.540;2023-02-15T05:17:54;102518.09;;;4.19
13304;BMP280;6720;51.958;4.540;2023-02-15T05:20:21;102519.09;;;4.23
13304;BMP280;6720;51.958;4.540;2023-02-15T05:22:47;102512.91;;;4.19
13304;BMP280;6720;51.958;4.540;2023-02-15T05:25:12;102513.63;;;4.15
13304;BMP280;6720;51.958;4.540;2023-02-15T05:27:56;102505.84;;;4.15
13304;BMP280;6720;51.958;4.540;2023-02-15T05:30:40;102508.38;;;4.14
13304;BMP280;6720;51.958;4.540;2023-02-15T05:33:06;102509.28;;;4.14
13304;BMP280;6720;51.958;4.540;2023-02-15T05:35:32;102510.16;;;4.15
13304;BMP280;6720;51.958;4.540;2023-02-15T05:37:58;102503.97;;;4.11
13304;BMP280;6720;51.958;4.540;2023-02-15T05:40:23;102506.50;;;4.10
13304;BMP280;6720;51.958;4.540;2023-02-15T05:42:48;102505.66;;;4.09
13304;BMP280;6720;51.958;4.540;2023-02-15T05:45:14;102497.97;;;4.12
13304;BMP280;6720;51.958;4.540;2023-02-15T05:47:40;102492.63;;;4.08
13304;BMP280;6720;51.958;4.540;2023-02-15T05:50:06;102500.91;;;3.97
13304;BMP280;6720;51.958;4.540;2023-02-15T05:52:32;102509.44;;;3.95
13304;BMP280;6720;51.958;4.540;2023-02-15T05:54:57;102486.78;;;3.89
13304;BMP280;6720;51.958;4.540;2023-02-15T05:57:26;102507.69;;;3.94
13304;BMP280;6720;51.958;4.540;2023-02-15T05:59:51;102498.84;;;3.89
13304;BMP280;6720;51.958;4.540;2023-02-15T06:02:16;102488.22;;;3.81
13304;BMP280;6720;51.958;4.540;2023-02-15T06:04:42;102501.28;;;3.84
13304;BMP280;6720;51.958;4.540;2023-02-15T06:07:07;102493.59;;;3.87
13304;BMP280;6720;51.958;4.540;2023-02-15T06:09:33;102496.38;;;3.92
13304;BMP280;6720;51.958;4.540;2023-02-15T06:11:58;102493.41;;;3.81
13304;BMP280;6720;51.958;4.540;2023-02-15T06:14:23;102492.50;;;3.81
13304;BMP280;6720;51.958;4.540;2023-02-15T06:16:49;102499.91;;;3.70
13304;BMP280;6720;51.958;4.540;2023-02-15T06:19:15;102490.41;;;3.71
13304;BMP280;6720;51.958;4.540;2023-02-15T06:21:40;102500.66;;;3.68
13304;BMP280;6720;51.958;4.540;2023-02-15T06:24:07;102500.53;;;3.65
13304;BMP280;6720;51.958;4.540;2023-02-15T06:26:33;102504.91;;;3.66
13304;BMP280;6720;51.958;4.540;2023-02-15T06:28:58;102506.00;;;3.72
13304;BMP280;6720;51.958;4.540;2023-02-15T06:31:24;102506.06;;;3.74
13304;BMP280;6720;51.958;4.540;2023-02-15T06:34:14;102508.31;;;3.65
13304;BMP280;6720;51.958;4.540;2023-02-15T06:36:45;102506.25;;;3.56
13304;BMP280;6720;51.958;4.540;2023-02-15T06:39:11;102505.28;;;3.53
13304;BMP280;6720;51.958;4.540;2023-02-15T06:41:36;102505.47;;;3.59
13304;BMP280;6720;51.958;4.540;2023-02-15T06:44:02;102498.78;;;3.64
13304;BMP280;6720;51.958;4.540;2023-02-15T06:46:28;102494.25;;;3.58
13304;BMP280;6720;51.958;4.540;2023-02-15T06:48:53;102494.91;;;3.53
13304;BMP280;6720;51.958;4.540;2023-02-15T06:51:20;102484.31;;;3.47
13304;BMP280;6720;51.958;4.540;2023-02-15T06:53:45;102489.81;;;3.56
13304;BMP280;6720;51.958;4.540;2023-02-15T06:56:11;102489.63;;;3.50
13304;BMP280;6720;51.958;4.540;2023-02-15T06:58:38;102485.22;;;3.47
13304;BMP280;6720;51.958;4.540;2023-02-15T07:01:04;102488.06;;;3.55
13304;BMP280;6720;51.958;4.540;2023-02-15T07:03:30;102485.47;;;3.55
13304;BMP280;6720;51.958;4.540;2023-02-15T07:05:57;102489.22;;;3.63
13304;BMP280;6720;51.958;4.540;2023-02-15T07:08:24;102491.69;;;3.60
13304;BMP280;6720;51.958;4.540;2023-02-15T07:10:51;102499.59;;;3.63
13304;BMP280;6720;51.958;4.540;2023-02-15T07:13:16;102497.38;;;3.72
13304;BMP280;6720;51.958;4.540;2023-02-15T07:15:42;102488.88;;;3.76
13304;BMP280;6720;51.958;4.540;2023-02-15T07:18:08;102499.00;;;3.70
13304;BMP280;6720;51.958;4.540;2023-02-15T07:20:34;102487.09;;;3.75
13304;BMP280;6720;51.958;4.540;2023-02-15T07:23:01;102484.03;;;3.85
13304;BMP280;6720;51.958;4.540;2023-02-15T07:25:27;102483.38;;;3.90
13304;BMP280;6720;51.958;4.540;2023-02-15T07:27:57;102479.41;;;4.00
13304;BMP280;6720;51.958;4.540;2023-02-15T07:30:23;102488.53;;;3.90
13304;BMP280;6720;51.958;4.540;2023-02-15T07:32:48;102478.34;;;3.95
13304;BMP280;6720;51.958;4.540;2023-02-15T07:35:33;102481.78;;;3.94
13304;BMP280;6720;51.958;4.540;2023-02-15T07:37:59;102478.34;;;3.95
13304;BMP280;6720;51.958;4.540;2023-02-15T07:40:25;102484.91;;;4.09
13304;BMP280;6720;51.958;4.540;2023-02-15T07:42:51;102474.88;;;4.18
13304;BMP280;6720;51.958;4.540;2023-02-15T07:45:18;102475.78;;;4.20
13304;BMP280;6720;51.958;4.540;2023-02-15T07:47:44;102450.50;;;4.13
13304;BMP280;6720;51.958;4.540;2023-02-15T07:50:09;102470.09;;;4.30
13304;BMP280;6720;51.958;4.540;2023-02-15T07:52:35;102473.19;;;4.20
13304;BMP280;6720;51.958;4.540;2023-02-15T07:55:00;102469.75;;;4.20
13304;BMP280;6720;51.958;4.540;2023-02-15T07:57:25;102465.63;;;4.26
13304;BMP280;6720;51.958;4.540;2023-02-15T07:59:51;102447.50;;;4.26
13304;BMP280;6720;51.958;4.540;2023-02-15T08:02:16;102446.53;;;4.23
13304;BMP280;6720;51.958;4.540;2023-02-15T08:04:42;102458.28;;;4.38
13304;BMP280;6720;51.958;4.540;2023-02-15T08:07:07;102452.97;;;4.34
13304;BMP280;6720;51.958;4.540;2023-02-15T08:09:33;102442.78;;;4.40
13304;BMP280;6720;51.958;4.540;2023-02-15T08:11:58;102448.53;;;4.56
13304;BMP280;6720;51.958;4.540;2023-02-15T08:14:23;102456.84;;;4.73
13304;BMP280;6720;51.958;4.540;2023-02-15T08:16:51;102444.13;;;4.80
13304;BMP280;6720;51.958;4.540;2023-02-15T08:19:19;102441.94;;;4.92
13304;BMP280;6720;51.958;4.540;2023-02-15T08:24:17;102452.31;;;5.20
13304;BMP280;6720;51.958;4.540;2023-02-15T08:26:43;102436.59;;;5.16
13304;BMP280;6720;51.958;4.540;2023-02-15T08:29:12;102438.94;;;5.36
13304;BMP280;6720;51.958;4.540;2023-02-15T08:31:38;102418.06;;;5.32
13304;BMP280;6720;51.958;4.540;2023-02-15T08:34:06;102434.91;;;5.46
13304;BMP280;6720;51.958;4.540;2023-02-15T08:36:32;102434.50;;;5.60
13304;BMP280;6720;51.958;4.540;2023-02-15T08:38:59;102441.88;;;5.76
13304;BMP280;6720;51.958;4.540;2023-02-15T08:41:27;102436.25;;;5.91
13304;BMP280;6720;51.958;4.540;2023-02-15T08:43:56;102430.09;;;5.87
13304;BMP280;6720;51.958;4.540;2023-02-15T08:46:23;102431.84;;;5.88
13304;BMP280;6720;51.958;4.540;2023-02-15T08:48:50;102435.13;;;6.14
13304;BMP280;6720;51.958;4.540;2023-02-15T08:51:18;102438.66;;;6.16
13304;BMP280;6720;51.958;4.540;2023-02-15T08:53:47;102442.91;;;6.12
13304;BMP280;6720;51.958;4.540;2023-02-15T08:56:17;102447.47;;;6.21
13304;BMP280;6720;51.958;4.540;2023-02-15T08:58:43;102443.94;;;6.51
13304;BMP280;6720;51.958;4.540;2023-02-15T09:01:13;102448.63;;;6.66
13304;BMP280;6720;51.958;4.540;2023-02-15T09:03:39;102443.56;;;6.70
13304;BMP280;6720;51.958;4.540;2023-02-15T09:06:05;102441.81;;;6.71
13304;BMP280;6720;51.958;4.540;2023-02-15T09:08:31;102441.16;;;6.79
13304;BMP280;6720;51.958;4.540;2023-02-15T09:13:33;102438.50;;;7.53
13304;BMP280;6720;51.958;4.540;2023-02-15T09:16:04;102441.09;;;7.94
13304;BMP280;6720;51.958;4.540;2023-02-15T09:18:34;102435.88;;;8.40
13304;BMP280;6720;51.958;4.540;2023-02-15T09:21:17;102446.53;;;8.52
13304;BMP280;6720;51.958;4.540;2023-02-15T09:23:49;102437.72;;;9.00
13304;BMP280;6720;51.958;4.540;2023-02-15T09:26:20;102435.63;;;9.35
13304;BMP280;6720;51.958;4.540;2023-02-15T09:28:46;102438.16;;;9.30
13304;BMP280;6720;51.958;4.540;2023-02-15T09:31:18;102432.28;;;9.45
13304;BMP280;6720;51.958;4.540;2023-02-15T09:33:45;102439.75;;;9.85
13304;BMP280;6720;51.958;4.540;2023-02-15T09:38:59;102425.00;;;9.90
13304;BMP280;6720;51.958;4.540;2023-02-15T09:44:43;102443.94;;;10.47
13304;BMP280;6720;51.958;4.540;2023-02-15T09:52:27;102440.72;;;10.78
13304;BMP280;6720;51.958;4.540;2023-02-15T10:11:31;102431.25;;;11.01
13304;BMP280;6720;51.958;4.540;2023-02-15T10:16:56;102440.00;;;11.04
13304;BMP280;6720;51.958;4.540;2023-02-15T10:19:44;102429.53;;;11.00
13304;BMP280;6720;51.958;4.540;2023-02-15T10:22:36;102431.94;;;10.76
13304;BMP280;6720;51.958;4.540;2023-02-15T10:25:30;102427.91;;;11.21
13304;BMP280;6720;51.958;4.540;2023-02-15T10:28:14;102431.41;;;11.20
13304;BMP280;6720;51.958;4.540;2023-02-15T10:30:47;102426.94;;;11.09
13304;BMP280;6720;51.958;4.540;2023-02-15T10:33:30;102418.28;;;11.25
13304;BMP280;6720;51.958;4.540;2023-02-15T10:44:55;102429.72;;;11.32
13304;BMP280;6720;51.958;4.540;2023-02-15T10:49:55;102416.88;;;11.90
13304;BMP280;6720;51.958;4.540;2023-02-15T11:01:07;102411.56;;;11.72
13304;BMP280;6720;51.958;4.540;2023-02-15T11:06:22;102385.44;;;12.41
13304;BMP280;6720;51.958;4.540;2023-02-15T11:08:55;102384.56;;;12.41
13304;BMP280;6720;51.958;4.540;2023-02-15T11:11:30;102397.69;;;12.45
13304;BMP280;6720;51.958;4.540;2023-02-15T11:14:12;102394.19;;;12.37
13304;BMP280;6720;51.958;4.540;2023-02-15T11:16:44;102392.44;;;12.33
13304;BMP280;6720;51.958;4.540;2023-02-15T11:19:18;102392.44;;;12.50
13304;BMP280;6720;51.958;4.540;2023-02-15T11:21:48;102388.91;;;12.79
13304;BMP280;6720;51.958;4.540;2023-02-15T11:24:18;102388.03;;;13.09
13304;BMP280;6720;51.958;4.540;2023-02-15T11:26:57;102379.19;;;13.28
13304;BMP280;6720;51.958;4.540;2023-02-15T11:29:38;102376.47;;;13.47
13304;BMP280;6720;51.958;4.540;2023-02-15T11:34:58;102360.75;;;13.35
13304;BMP280;6720;51.958;4.540;2023-02-15T11:37:35;102375.75;;;12.81
13304;BMP280;6720;51.958;4.540;2023-02-15T11:40:17;102378.41;;;13.00
13304;BMP280;6720;51.958;4.540;2023-02-15T11:42:45;102372.16;;;13.27
13304;BMP280;6720;51.958;4.540;2023-02-15T11:45:26;102363.50;;;12.99
13304;BMP280;6720;51.958;4.540;2023-02-15T11:47:54;102364.31;;;13.25
13304;BMP280;6720;51.958;4.540;2023-02-15T11:50:23;102358.88;;;13.61
13304;BMP280;6720;51.958;4.540;2023-02-15T11:52:56;102354.66;;;13.23
13304;BMP280;6720;51.958;4.540;2023-02-15T11:55:23;102339.56;;;13.62
13304;BMP280;6720;51.958;4.540;2023-02-15T11:57:54;102334.19;;;13.83
13304;BMP280;6720;51.958;4.540;2023-02-15T12:00:34;102337.88;;;13.48
13304;BMP280;6720;51.958;4.540;2023-02-15T12:03:07;102333.16;;;14.04
13304;BMP280;6720;51.958;4.540;2023-02-15T12:05:37;102336.72;;;13.92
13304;BMP280;6720;51.958;4.540;2023-02-15T12:08:13;102340.72;;;14.47
13304;BMP280;6720;51.958;4.540;2023-02-15T12:10:55;102330.00;;;14.68
13304;BMP280;6720;51.958;4.540;2023-02-15T12:13:22;102341.38;;;14.72
13304;BMP280;6720;51.958;4.540;2023-02-15T12:15:51;102337.91;;;14.68
13304;BMP280;6720;51.958;4.540;2023-02-15T12:20:52;102317.34;;;15.67
13304;BMP280;6720;51.958;4.540;2023-02-15T12:23:23;102319.06;;;15.02
13304;BMP280;6720;51.958;4.540;2023-02-15T12:25:51;102329.38;;;15.21
13304;BMP280;6720;51.958;4.540;2023-02-15T12:28:40;102319.72;;;15.22
13304;BMP280;6720;51.958;4.540;2023-02-15T12:31:18;102320.72;;;15.12
13304;BMP280;6720;51.958;4.540;2023-02-15T12:33:45;102320.44;;;15.36
13304;BMP280;6720;51.958;4.540;2023-02-15T12:38:40;102324.56;;;14.84
13304;BMP280;6720;51.958;4.540;2023-02-15T12:41:22;102326.22;;;14.89
13304;BMP280;6720;51.958;4.540;2023-02-15T12:44:24;102319.59;;;14.53
13304;BMP280;6720;51.958;4.540;2023-02-15T12:49:36;102300.28;;;14.51
13304;BMP280;6720;51.958;4.540;2023-02-15T12:52:34;102319.34;;;14.77
13304;BMP280;6720;51.958;4.540;2023-02-15T12:55:21;102311.59;;;14.62
13304;BMP280;6720;51.958;4.540;2023-02-15T12:57:47;102302.09;;;14.46
13304;BMP280;6720;51.958;4.540;2023-02-15T13:02:48;102303.69;;;14.62
13304;BMP280;6720;51.958;4.540;2023-02-15T13:05:39;102303.03;;;14.41
13304;BMP280;6720;51.958;4.540;2023-02-15T13:08:13;102310.91;;;14.42
13304;BMP280;6720;51.958;4.540;2023-02-15T13:10:56;102295.63;;;13.73
13304;BMP280;6720;51.958;4.540;2023-02-15T13:13:25;102292.69;;;14.14
13304;BMP280;6720;51.958;4.540;2023-02-15T13:15:54;102290.69;;;14.44
13304;BMP280;6720;51.958;4.540;2023-02-15T13:18:34;102286.41;;;14.34
13304;BMP280;6720;51.958;4.540;2023-02-15T13:21:26;102290.13;;;14.06
13304;BMP280;6720;51.958;4.540;2023-02-15T13:24:00;102288.28;;;14.13
13304;BMP280;6720;51.958;4.540;2023-02-15T13:26:29;102282.94;;;14.26
13304;BMP280;6720;51.958;4.540;2023-02-15T13:28:59;102276.91;;;14.11
13304;BMP280;6720;51.958;4.540;2023-02-15T13:31:28;102281.06;;;14.40
13304;BMP280;6720;51.958;4.540;2023-02-15T13:34:06;102276.72;;;14.36
13304;BMP280;6720;51.958;4.540;2023-02-15T13:52:23;102268.78;;;14.41
13304;BMP280;6720;51.958;4.540;2023-02-15T14:00:47;102242.44;;;15.12
13304;BMP280;6720;51.958;4.540;2023-02-15T14:09:11;102246.03;;;15.69
13304;BMP280;6720;51.958;4.540;2023-02-15T14:17:06;102228.78;;;16.92
13304;BMP280;6720;51.958;4.540;2023-02-15T14:24:38;102251.94;;;15.86
13304;BMP280;6720;51.958;4.540;2023-02-15T14:30:20;102255.91;;;16.11
13304;BMP280;6720;51.958;4.540;2023-02-15T14:32:50;102255.09;;;15.53
13304;BMP280;6720;51.958;4.540;2023-02-15T14:35:20;102253.81;;;15.16
13304;BMP280;6720;51.958;4.540;2023-02-15T14:37:57;102261.44;;;14.68
13304;BMP280;6720;51.958;4.540;2023-02-15T14:49:27;102247.34;;;14.71
13304;BMP280;6720;51.958;4.540;2023-02-15T14:52:01;102244.16;;;14.40
13304;BMP280;6720;51.958;4.540;2023-02-15T15:02:16;102247.50;;;14.57
13304;BMP280;6720;51.958;4.540;2023-02-15T15:05:09;102235.47;;;14.32
13304;BMP280;6720;51.958;4.540;2023-02-15T15:12:47;102237.34;;;14.15
13304;BMP280;6720;51.958;4.540;2023-02-15T15:15:54;102242.00;;;13.86
13304;BMP280;6720;51.958;4.540;2023-02-15T15:18:48;102230.84;;;13.53
13304;BMP280;6720;51.958;4.540;2023-02-15T15:46:42;102220.75;;;12.64
13304;BMP280;6720;51.958;4.540;2023-02-15T15:49:21;102220.78;;;12.52
13304;BMP280;6720;51.958;4.540;2023-02-15T15:51:49;102198.09;;;12.33
13304;BMP280;6720;51.958;4.540;2023-02-15T15:54:18;102210.31;;;12.43
13304;BMP280;6720;51.958;4.540;2023-02-15T15:56:48;102212.06;;;12.47
13304;BMP280;6720;51.958;4.540;2023-02-15T15:59:19;102216.47;;;12.32
13304;BMP280;6720;51.958;4.540;2023-02-15T16:01:47;102215.59;;;12.25
13304;BMP280;6720;51.958;4.540;2023-02-15T16:06:50;102204.25;;;12.19
13304;BMP280;6720;51.958;4.540;2023-02-15T16:09:26;102206.00;;;12.21
13304;BMP280;6720;51.958;4.540;2023-02-15T16:11:54;102196.34;;;12.23
13304;BMP280;6720;51.958;4.540;2023-02-15T16:14:42;102189.38;;;12.16
13304;BMP280;6720;51.958;4.540;2023-02-15T16:17:20;102193.75;;;12.20
13304;BMP280;6720;51.958;4.540;2023-02-15T16:19:47;102191.16;;;11.83
13304;BMP280;6720;51.958;4.540;2023-02-15T16:22:25;102184.16;;;11.77
13304;BMP280;6720;51.958;4.540;2023-02-15T16:27:42;102176.28;;;11.64
13304;BMP280;6720;51.958;4.540;2023-02-15T16:30:33;102171.88;;;11.57
13304;BMP280;6720;51.958;4.540;2023-02-15T16:33:13;102169.28;;;11.54
13304;BMP280;6720;51.958;4.540;2023-02-15T16:35:54;102178.06;;;11.62
13304;BMP280;6720;51.958;4.540;2023-02-15T16:41:17;102180.63;;;11.51
13304;BMP280;6720;51.958;4.540;2023-02-15T16:43:47;102192.84;;;11.43
13304;BMP280;6720;51.958;4.540;2023-02-15T16:46:18;102177.13;;;11.34
13304;BMP280;6720;51.958;4.540;2023-02-15T16:48:46;102186.75;;;11.40
13304;BMP280;6720;51.958;4.540;2023-02-15T16:51:29;102191.09;;;11.32
13304;BMP280;6720;51.958;4.540;2023-02-15T16:54:04;102192.81;;;11.25
13304;BMP280;6720;51.958;4.540;2023-02-15T16:56:31;102179.72;;;11.25
13304;BMP280;6720;51.958;4.540;2023-02-15T16:58:58;102187.59;;;11.22
13304;BMP280;6720;51.958;4.540;2023-02-15T17:01:27;102192.81;;;11.16
13304;BMP280;6720;51.958;4.540;2023-02-15T17:04:29;102192.84;;;11.22
13304;BMP280;6720;51.958;4.540;2023-02-15T17:07:32;102191.06;;;11.21
13304;BMP280;6720;51.958;4.540;2023-02-15T17:09:52;102196.31;;;11.16
13304;BMP280;6720;51.958;4.540;2023-02-15T17:12:54;102201.53;;;11.12
13304;BMP280;6720;51.958;4.540;2023-02-15T17:18:31;102195.41;;;11.11
13304;BMP280;6720;51.958;4.540;2023-02-15T17:21:00;102185.78;;;11.06
13304;BMP280;6720;51.958;4.540;2023-02-15T17:23:33;102192.81;;;11.07
13304;BMP280;6720;51.958;4.540;2023-02-15T17:26:01;102195.41;;;11.04
13304;BMP280;6720;51.958;4.540;2023-02-15T17:28:35;102202.38;;;10.94
13304;BMP280;6720;51.958;4.540;2023-02-15T17:31:06;102193.63;;;10.95
13304;BMP280;6720;51.958;4.540;2023-02-15T17:33:46;102211.09;;;10.90
13304;BMP280;6720;51.958;4.540;2023-02-15T17:36:16;102207.56;;;10.81
13304;BMP280;6720;51.958;4.540;2023-02-15T17:41:21;102218.06;;;10.88
13304;BMP280;6720;51.958;4.540;2023-02-15T17:43:47;102197.09;;;10.81
13304;BMP280;6720;51.958;4.540;2023-02-15T17:46:12;102216.31;;;10.87
13304;BMP280;6720;51.958;4.540;2023-02-15T17:48:42;102210.19;;;10.84
13304;BMP280;6720;51.958;4.540;2023-02-15T17:51:12;102203.19;;;10.83
13304;BMP280;6720;51.958;4.540;2023-02-15T17:53:37;102204.94;;;10.81
13304;BMP280;6720;51.958;4.540;2023-02-15T17:56:03;102204.03;;;10.77